createdAt,value
2023-02-14T00:02:22.503Z,39.43
2023-02-14T00:04:53.847Z,44.17
2023-02-14T00:07:25.196Z,42.90
2023-02-14T00:09:56.475Z,41.33
2023-02-14T00:12:27.775Z,43.67
2023-02-14T00:15:17.546Z,47.23
2023-02-14T00:17:50.107Z,42.23
2023-02-14T00:20:22.849Z,46.47
2023-02-14T00:22:54.305Z,36.17
2023-02-14T00:25:25.656Z,42.40
2023-02-14T00:27:56.908Z,43.73
2023-02-14T00:30:28.325Z,42.23
2023-02-14T00:32:59.668Z,43.50
2023-02-14T00:35:30.949Z,43.13
2023-02-14T00:38:02.249Z,39.33
2023-02-14T00:40:33.548Z,39.07
2023-02-14T00:43:04.821Z,39.77
2023-02-14T00:45:36.158Z,42.07
2023-02-14T00:48:07.528Z,42.50
2023-02-14T00:50:38.791Z,41.97
2023-02-14T00:53:10.055Z,42.20
2023-02-14T00:55:41.426Z,40.93
2023-02-14T00:58:13.158Z,40.67
2023-02-14T01:00:44.518Z,44.33
2023-02-14T01:03:15.800Z,49.77
2023-02-14T01:05:47.695Z,46.80
2023-02-14T01:08:19.902Z,46.87
2023-02-14T01:10:51.252Z,38.80
2023-02-14T01:13:22.662Z,47.17
2023-02-14T01:15:54.003Z,45.83
2023-02-14T01:18:25.250Z,43.20
2023-02-14T01:20:56.683Z,41.37
2023-02-14T01:23:27.981Z,44.70
2023-02-14T01:26:03.400Z,42.83
2023-02-14T01:28:35.136Z,39.90
2023-02-14T01:31:12.342Z,39.27
2023-02-14T01:33:46.153Z,35.27
2023-02-14T01:36:20.311Z,36.57
2023-02-14T01:38:54.560Z,39.83
2023-02-14T01:41:28.372Z,45.70
2023-02-14T01:44:06.525Z,47.50
2023-02-14T01:46:37.982Z,47.40
2023-02-14T01:49:18.355Z,36.30
2023-02-14T01:52:12.181Z,42.97
2023-02-14T01:54:51.766Z,43.77
2023-02-14T01:57:27.192Z,34.57
2023-02-14T02:00:20.640Z,44.70
2023-02-14T02:02:52.675Z,38.57
2023-02-14T02:05:24.290Z,39.77
2023-02-14T02:07:58.798Z,45.77
2023-02-14T02:10:30.197Z,39.30
2023-02-14T02:13:14.584Z,34.47
2023-02-14T02:16:02.113Z,39.80
2023-02-14T02:19:05.805Z,43.13
2023-02-14T02:21:44.776Z,47.97
2023-02-14T02:24:26.514Z,45.97
2023-02-14T02:27:18.865Z,38.93
2023-02-14T02:30:23.017Z,43.53
2023-02-14T02:33:04.667Z,41.50
2023-02-14T02:35:53.666Z,41.10
2023-02-14T02:38:43.801Z,39.47
2023-02-14T02:41:37.746Z,39.80
2023-02-14T02:44:13.305Z,42.70
2023-02-14T02:46:58.599Z,44.35
2023-02-14T02:50:07.598Z,45.10
2023-02-14T02:53:06.829Z,41.93
2023-02-14T02:56:02.381Z,38.00
2023-02-14T02:58:39.370Z,45.07
2023-02-14T03:01:15.217Z,40.27
2023-02-14T03:04:08.053Z,42.20
2023-02-14T03:06:39.333Z,40.60
2023-02-14T03:09:19.733Z,40.70
2023-02-14T03:12:18.842Z,44.70
2023-02-14T03:14:58.143Z,37.10
2023-02-14T03:17:54.103Z,40.20
2023-02-14T03:20:46.542Z,40.50
2023-02-14T03:23:22.930Z,38.57
2023-02-14T03:26:16.836Z,44.53
2023-02-14T03:29:15.438Z,42.00
2023-02-14T03:32:15.491Z,45.33
2023-02-14T03:34:57.469Z,43.80
2023-02-14T03:37:36.708Z,39.63
2023-02-14T03:40:19.357Z,40.00
2023-02-14T03:43:09.785Z,48.60
2023-02-14T03:45:49.169Z,40.27
2023-02-14T03:48:24.035Z,41.80
2023-02-14T03:50:57.481Z,40.70
2023-02-14T03:53:33.102Z,39.93
2023-02-14T03:56:14.190Z,41.83
2023-02-14T03:58:50.834Z,40.57
2023-02-14T04:01:28.212Z,44.23
2023-02-14T04:04:01.421Z,35.77
2023-02-14T04:06:32.948Z,44.37
2023-02-14T04:09:04.269Z,41.03
2023-02-14T04:11:35.979Z,45.07
2023-02-14T04:14:07.320Z,41.20
2023-02-14T04:16:57.337Z,43.83
2023-02-14T04:19:28.690Z,41.53
2023-02-14T04:21:59.988Z,48.83
2023-02-14T04:24:31.299Z,44.27
2023-02-14T04:27:11.899Z,39.17
2023-02-14T04:29:47.339Z,38.93
2023-02-14T04:32:21.178Z,43.47
2023-02-14T04:34:52.623Z,48.13
2023-02-14T04:37:23.910Z,40.33
2023-02-14T04:39:55.211Z,39.73
2023-02-14T04:42:26.862Z,44.27
2023-02-14T04:44:58.756Z,48.67
2023-02-14T04:47:30.038Z,40.50
2023-02-14T04:50:01.345Z,42.33
2023-02-14T04:52:32.689Z,40.97
2023-02-14T04:55:04.579Z,46.17
2023-02-14T04:57:35.969Z,45.63
2023-02-14T05:00:08.076Z,45.70
2023-02-14T05:02:39.433Z,43.63
2023-02-14T05:05:10.899Z,43.83
2023-02-14T05:07:47.407Z,39.50
2023-02-14T05:10:18.842Z,37.30
2023-02-14T05:12:50.098Z,40.50
2023-02-14T05:15:21.370Z,37.47
2023-02-14T05:17:52.634Z,41.30
2023-02-14T05:20:24.051Z,44.10
2023-02-14T05:22:55.355Z,39.93
2023-02-14T05:25:26.650Z,40.77
2023-02-14T05:27:58.130Z,47.70
2023-02-14T05:30:30.171Z,43.90
2023-02-14T05:33:01.681Z,42.60
2023-02-14T05:35:33.324Z,43.77
2023-02-14T05:38:04.610Z,48.67
2023-02-14T05:40:35.966Z,47.77
2023-02-14T05:43:07.376Z,47.63
2023-02-14T05:45:38.737Z,45.67
2023-02-14T05:48:10.051Z,44.97
2023-02-14T05:50:42.483Z,44.03
2023-02-14T05:53:14.701Z,45.93
2023-02-14T05:55:46.643Z,45.43
2023-02-14T05:58:17.905Z,46.90
2023-02-14T06:00:49.181Z,44.10
2023-02-14T06:03:20.430Z,43.70
2023-02-14T06:05:51.813Z,43.13
2023-02-14T06:08:23.251Z,39.37
2023-02-14T06:10:54.643Z,37.03
2023-02-14T06:13:25.928Z,37.43
2023-02-14T06:15:57.245Z,45.00
2023-02-14T06:18:29.537Z,33.03
2023-02-14T06:21:01.323Z,37.77
2023-02-14T06:23:32.791Z,41.80
2023-02-14T06:26:04.500Z,36.23
2023-02-14T06:28:35.789Z,34.67
2023-02-14T06:31:07.159Z,41.07
2023-02-14T06:33:38.475Z,38.53
2023-02-14T06:36:10.550Z,39.77
2023-02-14T06:38:41.893Z,35.77
2023-02-14T06:41:14.885Z,34.83
2023-02-14T06:43:50.477Z,38.67
2023-02-14T06:46:21.960Z,33.38
2023-02-14T06:48:53.283Z,35.57
2023-02-14T06:51:24.608Z,38.00
2023-02-14T06:53:55.974Z,33.17
2023-02-14T06:56:27.234Z,41.50
2023-02-14T06:58:58.486Z,44.47
2023-02-14T07:01:29.935Z,37.40
2023-02-14T07:04:01.231Z,35.37
2023-02-14T07:06:32.498Z,33.90
2023-02-14T07:09:04.567Z,39.87
2023-02-14T07:11:35.849Z,37.03
2023-02-14T07:14:07.097Z,44.97
2023-02-14T07:16:38.391Z,41.13
2023-02-14T07:19:09.657Z,46.23
2023-02-14T07:21:40.995Z,44.00
2023-02-14T07:24:12.254Z,50.73
2023-02-14T07:26:43.508Z,46.17
2023-02-14T07:29:14.815Z,39.70
2023-02-14T07:31:46.282Z,42.63
2023-02-14T07:34:17.587Z,40.83
2023-02-14T07:36:48.902Z,42.17
2023-02-14T07:39:20.258Z,40.77
2023-02-14T07:41:51.598Z,43.93
2023-02-14T07:44:22.846Z,43.73
2023-02-14T07:46:54.119Z,39.20
2023-02-14T07:49:25.375Z,56.27
2023-02-14T07:51:56.698Z,47.37
2023-02-14T07:54:28.174Z,44.50
2023-02-14T07:56:59.590Z,45.27
2023-02-14T07:59:30.864Z,44.37
2023-02-14T08:02:02.193Z,50.00
2023-02-14T08:04:33.996Z,44.40
2023-02-14T08:07:05.377Z,38.20
2023-02-14T08:09:36.644Z,44.87
2023-02-14T08:12:26.798Z,41.27
2023-02-14T08:15:18.047Z,41.47
2023-02-14T08:17:49.297Z,41.37
2023-02-14T08:20:20.727Z,38.10
2023-02-14T08:22:52.096Z,43.13
2023-02-14T08:25:23.979Z,40.33
2023-02-14T08:27:55.503Z,41.37
2023-02-14T08:30:26.950Z,33.83
2023-02-14T08:32:58.400Z,33.87
2023-02-14T08:35:29.978Z,34.83
2023-02-14T08:38:01.368Z,33.83
2023-02-14T08:40:34.219Z,28.60
2023-02-14T08:43:06.775Z,28.33
2023-02-14T08:45:39.292Z,32.57
2023-02-14T08:48:12.520Z,30.53
2023-02-14T08:50:43.808Z,29.07
2023-02-14T08:53:15.129Z,29.20
2023-02-14T08:55:46.421Z,25.43
2023-02-14T08:58:18.387Z,31.90
2023-02-14T09:00:49.685Z,28.30
2023-02-14T09:03:21.417Z,24.13
2023-02-14T09:05:52.866Z,26.10
2023-02-14T09:08:24.240Z,24.83
2023-02-14T09:10:55.580Z,22.70
2023-02-14T09:13:26.876Z,22.07
2023-02-14T09:15:58.167Z,22.77
2023-02-14T09:18:29.480Z,25.40
2023-02-14T09:21:01.307Z,18.57
2023-02-14T09:23:33.071Z,21.47
2023-02-14T09:26:07.327Z,23.03
2023-02-14T09:28:39.344Z,22.03
2023-02-14T09:31:14.783Z,23.23
2023-02-14T09:34:05.851Z,20.70
2023-02-14T09:36:37.110Z,19.00
2023-02-14T09:39:08.422Z,21.67
2023-02-14T09:41:51.757Z,20.40
2023-02-14T09:44:36.484Z,18.67
2023-02-14T09:47:24.458Z,17.60
2023-02-14T09:49:56.162Z,24.60
2023-02-14T09:52:30.624Z,19.63
2023-02-14T09:55:03.221Z,21.60
2023-02-14T09:58:02.745Z,20.30
2023-02-14T10:00:40.278Z,19.87
2023-02-14T10:03:39.916Z,20.93
2023-02-14T10:06:51.211Z,19.47
2023-02-14T10:10:10.358Z,18.93
2023-02-14T10:13:08.143Z,18.50
2023-02-14T10:15:43.826Z,18.97
2023-02-14T10:18:22.047Z,15.60
2023-02-14T10:20:59.044Z,18.03
2023-02-14T10:23:37.712Z,17.83
2023-02-14T10:26:17.480Z,18.40
2023-02-14T10:28:50.286Z,18.00
2023-02-14T10:31:25.197Z,18.60
2023-02-14T10:34:21.098Z,16.77
2023-02-14T10:37:27.602Z,18.27
2023-02-14T10:40:04.982Z,17.83
2023-02-14T10:42:42.336Z,16.80
2023-02-14T10:45:52.817Z,15.80
2023-02-14T10:48:54.975Z,17.03
2023-02-14T10:51:39.020Z,21.53
2023-02-14T10:54:26.762Z,16.90
2023-02-14T10:57:00.756Z,14.73
2023-02-14T10:59:53.241Z,17.23
2023-02-14T11:02:31.646Z,14.40
2023-02-14T11:05:04.540Z,14.27
2023-02-14T11:07:35.873Z,16.33
2023-02-14T11:10:13.865Z,15.53
2023-02-14T11:12:45.199Z,13.80
2023-02-14T11:15:16.418Z,14.13
2023-02-14T11:17:48.047Z,14.03
2023-02-14T11:20:22.468Z,18.07
2023-02-14T11:22:53.783Z,15.00
2023-02-14T11:25:30.413Z,13.73
2023-02-14T11:28:15.895Z,16.93
2023-02-14T11:30:49.636Z,14.37
2023-02-14T11:33:42.394Z,15.80
2023-02-14T11:36:17.815Z,19.47
2023-02-14T11:38:58.098Z,16.90
2023-02-14T11:41:46.609Z,13.97
2023-02-14T11:44:22.758Z,12.20
2023-02-14T11:49:35.015Z,13.77
2023-02-14T11:52:11.398Z,17.43
2023-02-14T11:54:44.811Z,18.10
2023-02-14T11:57:33.477Z,17.07
2023-02-14T12:00:15.194Z,20.87
2023-02-14T12:02:49.490Z,16.57
2023-02-14T12:05:31.116Z,17.83
2023-02-14T12:08:05.695Z,12.87
2023-02-14T12:10:39.692Z,14.47
2023-02-14T12:13:11.125Z,15.93
2023-02-14T12:15:42.410Z,15.57
2023-02-14T12:18:38.035Z,18.77
2023-02-14T12:21:25.932Z,18.97
2023-02-14T12:24:16.285Z,18.27
2023-02-14T12:27:01.399Z,17.73
2023-02-14T12:29:54.329Z,12.87
2023-02-14T12:32:28.425Z,16.87
2023-02-14T12:35:24.559Z,14.73
2023-02-14T12:38:33.066Z,16.87
2023-02-14T12:41:33.051Z,16.43
2023-02-14T12:44:20.976Z,17.53
2023-02-14T12:47:14.548Z,17.23
2023-02-14T12:50:20.928Z,18.30
2023-02-14T12:52:58.047Z,13.00
2023-02-14T12:55:49.093Z,15.00
2023-02-14T12:58:34.070Z,14.07
2023-02-14T13:01:38.434Z,14.83
2023-02-14T13:04:48.163Z,15.47
2023-02-14T13:07:38.878Z,16.10
2023-02-14T13:10:35.757Z,13.97
2023-02-14T13:13:12.587Z,14.75
2023-02-14T13:16:22.540Z,15.37
2023-02-14T13:19:01.440Z,15.43
2023-02-14T13:21:37.347Z,13.30
2023-02-14T13:24:21.689Z,14.57
2023-02-14T13:26:57.596Z,14.80
2023-02-14T13:29:51.843Z,17.88
2023-02-14T13:32:36.140Z,16.83
2023-02-14T13:35:08.325Z,14.97
2023-02-14T13:37:41.355Z,13.07
2023-02-14T13:40:20.649Z,17.23
2023-02-14T13:42:54.853Z,16.67
2023-02-14T13:45:29.189Z,13.80
2023-02-14T13:48:22.785Z,13.90
2023-02-14T13:51:03.371Z,12.83
2023-02-14T13:53:43.811Z,16.07
2023-02-14T13:56:15.359Z,16.90
2023-02-14T13:58:55.746Z,17.73
2023-02-14T14:01:48.002Z,12.87
2023-02-14T14:04:28.306Z,16.67
2023-02-14T14:07:02.314Z,16.07
2023-02-14T14:09:42.843Z,16.07
2023-02-14T14:12:23.134Z,16.23
2023-02-14T14:15:16.230Z,19.00
2023-02-14T14:18:07.891Z,15.23
2023-02-14T14:20:47.706Z,13.90
2023-02-14T14:23:29.663Z,13.90
2023-02-14T14:26:01.597Z,13.10
2023-02-14T14:28:33.246Z,17.10
2023-02-14T14:31:04.626Z,14.23
2023-02-14T14:33:37.597Z,13.30
2023-02-14T14:36:21.193Z,13.90
2023-02-14T14:38:54.108Z,15.97
2023-02-14T14:41:29.637Z,14.43
2023-02-14T14:44:01.310Z,13.45
2023-02-14T14:46:33.369Z,13.87
2023-02-14T14:49:09.436Z,16.73
2023-02-14T14:54:11.973Z,15.37
2023-02-14T14:57:01.487Z,16.70
2023-02-14T14:59:35.605Z,16.57
2023-02-14T15:02:26.279Z,15.23
2023-02-14T15:04:57.665Z,13.43
2023-02-14T15:07:34.532Z,14.77
2023-02-14T15:10:24.827Z,12.37
2023-02-14T15:13:17.620Z,14.07
2023-02-14T15:15:51.144Z,14.20
2023-02-14T15:18:22.649Z,15.03
2023-02-14T15:20:54.407Z,15.97
2023-02-14T15:23:25.811Z,10.37
2023-02-14T15:25:57.079Z,14.67
2023-02-14T15:28:35.464Z,14.83
2023-02-14T15:31:07.770Z,14.13
2023-02-14T15:33:39.582Z,12.50
2023-02-14T15:36:20.996Z,17.73
2023-02-14T15:38:54.621Z,14.70
2023-02-14T15:41:27.012Z,15.27
2023-02-14T15:43:58.359Z,15.73
2023-02-14T15:46:38.488Z,14.03
2023-02-14T15:49:14.974Z,18.23
2023-02-14T15:51:48.826Z,22.07
2023-02-14T15:54:25.391Z,19.17
2023-02-14T15:56:58.656Z,16.07
2023-02-14T15:59:33.543Z,17.03
2023-02-14T16:02:24.934Z,22.40
2023-02-14T16:05:22.938Z,16.23
2023-02-14T16:08:29.592Z,15.57
2023-02-14T16:11:23.891Z,19.47
2023-02-14T16:13:55.895Z,18.90
2023-02-14T16:16:57.016Z,19.10
2023-02-14T16:19:41.478Z,19.23
2023-02-14T16:22:25.838Z,18.27
2023-02-14T16:24:58.595Z,20.67
2023-02-14T16:27:29.877Z,18.77
2023-02-14T16:30:01.416Z,19.03
2023-02-14T16:32:32.759Z,21.30
2023-02-14T16:35:04.390Z,19.73
2023-02-14T16:37:35.690Z,20.83
2023-02-14T16:40:14.175Z,18.23
2023-02-14T16:42:45.669Z,20.10
2023-02-14T16:45:19.220Z,21.30
2023-02-14T16:47:50.585Z,17.80
2023-02-14T16:50:22.659Z,22.03
2023-02-14T16:52:57.689Z,19.57
2023-02-14T16:55:29.980Z,16.80
2023-02-14T16:58:02.789Z,20.87
2023-02-14T17:00:34.138Z,18.97
2023-02-14T17:03:11.357Z,20.60
2023-02-14T17:05:43.209Z,21.00
2023-02-14T17:08:15.763Z,21.67
2023-02-14T17:10:48.636Z,20.37
2023-02-14T17:13:24.879Z,19.60
2023-02-14T17:18:30.623Z,22.80
2023-02-14T17:21:02.675Z,18.90
2023-02-14T17:23:34.191Z,22.13
2023-02-14T17:26:06.294Z,20.87
2023-02-14T17:28:37.664Z,21.60
2023-02-14T17:31:09.115Z,20.23
2023-02-14T17:33:40.558Z,21.90
2023-02-14T17:36:14.474Z,19.00
2023-02-14T17:38:45.966Z,20.30
2023-02-14T17:41:22.166Z,23.00
2023-02-14T17:46:31.738Z,22.87
2023-02-14T17:49:03.056Z,23.20
2023-02-14T17:51:34.344Z,19.30
2023-02-14T17:54:05.683Z,22.60
2023-02-14T17:56:37.068Z,21.13
2023-02-14T17:59:08.361Z,21.27
2023-02-14T18:01:39.882Z,21.50
2023-02-14T18:04:11.192Z,22.63
2023-02-14T18:06:43.062Z,21.17
2023-02-14T18:09:14.442Z,23.33
2023-02-14T18:11:45.884Z,22.73
2023-02-14T18:14:17.284Z,19.90
2023-02-14T18:16:48.734Z,21.27
2023-02-14T18:19:20.026Z,27.37
2023-02-14T18:21:51.301Z,27.93
2023-02-14T18:24:22.658Z,23.03
2023-02-14T18:26:55.319Z,22.13
2023-02-14T18:29:27.668Z,22.23
2023-02-14T18:31:59.562Z,23.30
2023-02-14T18:34:31.649Z,25.03
2023-02-14T18:37:04.309Z,24.43
2023-02-14T18:39:35.626Z,28.83
2023-02-14T18:42:06.894Z,21.90
2023-02-14T18:44:38.231Z,22.80
2023-02-14T18:47:09.609Z,25.07
2023-02-14T18:49:40.989Z,32.27
2023-02-14T18:52:12.278Z,25.70
2023-02-14T18:54:43.571Z,25.30
2023-02-14T18:57:14.844Z,23.50
2023-02-14T18:59:46.177Z,24.73
2023-02-14T19:02:17.606Z,27.17
2023-02-14T19:04:48.986Z,24.60
2023-02-14T19:07:20.350Z,20.40
2023-02-14T19:09:52.491Z,24.57
2023-02-14T19:12:24.344Z,28.70
2023-02-14T19:14:56.601Z,26.43
2023-02-14T19:17:28.097Z,32.20
2023-02-14T19:19:59.848Z,36.67
2023-02-14T19:22:36.143Z,29.20
2023-02-14T19:27:39.746Z,33.87
2023-02-14T19:30:11.278Z,31.83
2023-02-14T19:32:42.656Z,25.70
2023-02-14T19:35:14.412Z,27.10
2023-02-14T19:37:45.754Z,25.60
2023-02-14T19:40:17.150Z,26.20
2023-02-14T19:42:50.249Z,27.33
2023-02-14T19:45:21.750Z,25.37
2023-02-14T19:47:53.146Z,23.70
2023-02-14T19:50:25.100Z,23.90
2023-02-14T19:52:56.409Z,25.37
2023-02-14T19:55:28.005Z,21.97
2023-02-14T19:57:59.342Z,22.83
2023-02-14T20:00:30.714Z,21.50
2023-02-14T20:03:02.298Z,25.17
2023-02-14T20:05:39.766Z,25.10
2023-02-14T20:08:11.109Z,26.47
2023-02-14T20:10:42.398Z,23.73
2023-02-14T20:13:13.851Z,26.70
2023-02-14T20:15:45.488Z,25.57
2023-02-14T20:18:16.881Z,26.10
2023-02-14T20:21:03.375Z,23.07
2023-02-14T20:23:34.787Z,23.23
2023-02-14T20:26:13.455Z,27.40
2023-02-14T20:28:45.261Z,26.73
2023-02-14T20:31:19.384Z,24.90
2023-02-14T20:33:52.666Z,28.63
2023-02-14T20:36:24.781Z,32.30
2023-02-14T20:38:58.471Z,25.90
2023-02-14T20:41:30.152Z,26.67
2023-02-14T20:44:10.903Z,29.47
2023-02-14T20:46:42.305Z,29.67
2023-02-14T20:49:13.676Z,32.73
2023-02-14T20:51:46.442Z,28.83
2023-02-14T20:54:19.413Z,31.47
2023-02-14T20:56:51.100Z,35.23
2023-02-14T20:59:28.687Z,32.17
2023-02-14T21:02:00.227Z,28.07
2023-02-14T21:04:31.570Z,29.57
2023-02-14T21:07:07.565Z,32.70
2023-02-14T21:09:39.062Z,31.67
2023-02-14T21:12:10.615Z,32.53
2023-02-14T21:14:42.930Z,38.03
2023-02-14T21:17:14.385Z,42.90
2023-02-14T21:19:45.692Z,35.07
2023-02-14T21:22:17.161Z,35.60
2023-02-14T21:24:48.451Z,32.50
2023-02-14T21:27:19.746Z,31.43
2023-02-14T21:29:51.003Z,31.40
2023-02-14T21:32:22.426Z,38.30
2023-02-14T21:34:54.559Z,36.53
2023-02-14T21:37:25.856Z,36.17
2023-02-14T21:39:57.140Z,33.50
2023-02-14T21:42:28.439Z,34.40
2023-02-14T21:45:18.280Z,37.87
2023-02-14T21:48:09.564Z,38.63
2023-02-14T21:50:40.847Z,35.37
2023-02-14T21:53:12.876Z,40.93
2023-02-14T21:55:45.925Z,39.63
2023-02-14T21:58:17.189Z,36.70
2023-02-14T22:00:48.572Z,35.57
2023-02-14T22:03:19.854Z,42.13
2023-02-14T22:05:51.139Z,41.30
2023-02-14T22:08:22.439Z,45.03
2023-02-14T22:10:53.695Z,42.63
2023-02-14T22:13:25.113Z,44.07
2023-02-14T22:16:02.236Z,45.07
2023-02-14T22:18:34.144Z,41.33
2023-02-14T22:21:09.004Z,40.13
2023-02-14T22:23:41.231Z,39.20
2023-02-14T22:26:22.931Z,45.37
2023-02-14T22:28:59.336Z,45.13
2023-02-14T22:31:34.973Z,44.33
2023-02-14T22:34:08.213Z,46.30
2023-02-14T22:36:39.633Z,42.37
2023-02-14T22:39:14.699Z,38.70
2023-02-14T22:41:46.516Z,41.87
2023-02-14T22:44:17.816Z,42.97
2023-02-14T22:46:49.149Z,36.20
2023-02-14T22:49:20.419Z,38.90
2023-02-14T22:51:51.812Z,42.77
2023-02-14T22:54:23.212Z,44.83
2023-02-14T22:56:54.593Z,57.37
2023-02-14T22:59:28.210Z,119.03
2023-02-14T23:02:01.298Z,227.07
2023-02-14T23:04:32.630Z,444.07
2023-02-14T23:07:03.884Z,362.30
2023-02-14T23:09:35.266Z,388.70
2023-02-14T23:12:26.581Z,363.63
2023-02-14T23:15:16.764Z,417.37
2023-02-14T23:18:06.610Z,310.70
2023-02-14T23:20:56.440Z,311.07
2023-02-14T23:23:32.224Z,110.23
2023-02-14T23:26:03.750Z,107.45
2023-02-14T23:28:35.100Z,103.77
2023-02-14T23:31:06.491Z,169.13
2023-02-14T23:33:37.758Z,176.40
2023-02-14T23:36:09.066Z,178.30
2023-02-14T23:38:40.328Z,248.47
2023-02-14T23:41:30.264Z,191.80
2023-02-14T23:44:01.554Z,101.47
2023-02-14T23:46:33.050Z,47.10
2023-02-14T23:49:06.399Z,116.67
2023-02-14T23:51:37.762Z,162.97
2023-02-14T23:54:09.448Z,138.90
2023-02-14T23:56:41.002Z,54.77
2023-02-14T23:59:14.408Z,230.70
